createdAt,value
2019-04-27T00:02:23.065Z,11.10
2019-04-27T00:05:17.359Z,11.00
2019-04-27T00:07:56.224Z,10.90
2019-04-27T00:10:30.278Z,10.90
2019-04-27T00:13:02.111Z,10.80
2019-04-27T00:15:43.950Z,10.80
2019-04-27T00:18:30.906Z,10.70
2019-04-27T00:21:11.768Z,10.70
2019-04-27T00:23:42.899Z,10.70
2019-04-27T00:26:13.089Z,10.60
2019-04-27T00:28:43.392Z,10.60
2019-04-27T00:31:13.211Z,10.60
2019-04-27T00:33:43.456Z,10.60
2019-04-27T00:36:19.793Z,10.50
2019-04-27T00:39:07.765Z,10.50
2019-04-27T00:41:36.762Z,10.40
2019-04-27T00:44:06.060Z,10.40
2019-04-27T00:46:34.950Z,10.40
2019-04-27T00:49:03.933Z,10.30
2019-04-27T00:51:33.279Z,10.30
2019-04-27T00:54:02.639Z,10.40
2019-04-27T00:56:55.377Z,10.40
2019-04-27T00:59:55.164Z,10.40
2019-04-27T01:02:43.585Z,10.40
2019-04-27T01:05:17.180Z,10.30
2019-04-27T01:07:46.303Z,10.30
2019-04-27T01:10:15.318Z,10.40
2019-04-27T01:12:44.244Z,10.30
2019-04-27T01:15:13.837Z,10.30
2019-04-27T01:17:42.915Z,10.20
2019-04-27T01:20:12.187Z,10.30
2019-04-27T01:22:41.072Z,10.20
2019-04-27T01:25:10.123Z,10.20
2019-04-27T01:28:01.133Z,10.20
2019-04-27T01:30:33.911Z,10.20
2019-04-27T01:33:02.860Z,10.10
2019-04-27T01:35:31.686Z,10.10
2019-04-27T01:38:00.536Z,10.10
2019-04-27T01:40:30.222Z,10.10
2019-04-27T01:42:59.226Z,10.00
2019-04-27T01:45:28.983Z,10.00
2019-04-27T01:47:59.598Z,10.00
2019-04-27T01:50:29.079Z,9.90
2019-04-27T01:52:58.752Z,9.90
2019-04-27T01:55:27.753Z,9.90
2019-04-27T01:57:58.131Z,9.90
2019-04-27T02:00:49.308Z,9.90
2019-04-27T02:03:21.363Z,9.90
2019-04-27T02:05:53.794Z,9.90
2019-04-27T02:08:22.970Z,9.90
2019-04-27T02:10:51.935Z,9.80
2019-04-27T02:13:21.010Z,9.90
2019-04-27T02:15:50.032Z,9.90
2019-04-27T02:18:19.403Z,9.90
2019-04-27T02:20:49.169Z,9.90
2019-04-27T02:23:19.271Z,9.90
2019-04-27T02:25:49.659Z,10.00
2019-04-27T02:28:29.559Z,10.00
2019-04-27T02:31:19.686Z,10.00
2019-04-27T02:34:00.544Z,10.00
2019-04-27T02:36:30.551Z,10.10
2019-04-27T02:39:00.488Z,10.10
2019-04-27T02:41:29.787Z,10.10
2019-04-27T02:44:04.790Z,10.10
2019-04-27T02:46:33.749Z,10.10
2019-04-27T02:49:06.421Z,10.10
2019-04-27T02:51:59.514Z,10.10
2019-04-27T02:54:29.860Z,10.10
2019-04-27T02:56:59.493Z,10.10
2019-04-27T02:59:30.254Z,10.10
2019-04-27T03:02:04.541Z,10.10
2019-04-27T03:04:33.521Z,10.00
2019-04-27T03:07:02.778Z,10.10
2019-04-27T03:09:31.655Z,10.10
2019-04-27T03:12:01.787Z,10.10
2019-04-27T03:14:55.857Z,10.10
2019-04-27T03:17:31.066Z,10.10
2019-04-27T03:20:19.943Z,10.10
2019-04-27T03:22:51.960Z,10.00
2019-04-27T03:25:47.350Z,10.10
2019-04-27T03:28:19.646Z,10.00
2019-04-27T03:30:51.605Z,10.10
2019-04-27T03:33:22.324Z,10.10
2019-04-27T03:35:52.482Z,10.20
2019-04-27T03:38:19.908Z,10.20
2019-04-27T03:40:50.727Z,10.20
2019-04-27T03:43:22.199Z,10.20
2019-04-27T03:45:52.499Z,10.20
2019-04-27T03:48:21.752Z,10.20
2019-04-27T03:51:12.577Z,10.30
2019-04-27T03:54:00.473Z,10.20
2019-04-27T03:56:33.663Z,10.20
2019-04-27T03:59:05.768Z,10.20
2019-04-27T04:01:34.745Z,10.30
2019-04-27T04:04:03.722Z,10.30
2019-04-27T04:06:32.595Z,10.40
2019-04-27T04:09:01.627Z,10.30
2019-04-27T04:11:41.023Z,10.30
2019-04-27T04:14:13.148Z,10.30
2019-04-27T04:16:49.567Z,10.30
2019-04-27T04:19:19.670Z,10.30
2019-04-27T04:21:50.355Z,10.30
2019-04-27T04:24:20.053Z,10.30
2019-04-27T04:26:50.272Z,10.30
2019-04-27T04:29:20.191Z,10.30
2019-04-27T04:31:50.310Z,10.20
2019-04-27T04:34:19.966Z,10.20
2019-04-27T04:36:50.357Z,10.20
2019-04-27T04:39:19.917Z,10.20
2019-04-27T04:42:10.272Z,10.20
2019-04-27T04:45:00.480Z,10.30
2019-04-27T04:47:43.556Z,10.50
2019-04-27T04:50:15.240Z,10.80
2019-04-27T04:52:43.241Z,10.90
2019-04-27T04:55:12.123Z,11.00
2019-04-27T04:57:40.983Z,10.90
2019-04-27T05:00:10.313Z,10.90
2019-04-27T05:02:39.806Z,10.80
2019-04-27T05:05:09.417Z,10.80
2019-04-27T05:07:39.204Z,10.80
2019-04-27T05:10:09.037Z,10.80
2019-04-27T05:12:38.712Z,10.90
2019-04-27T05:15:09.137Z,11.00
2019-04-27T05:17:39.762Z,11.00
2019-04-27T05:20:26.309Z,11.10
2019-04-27T05:22:53.200Z,11.10
2019-04-27T05:25:22.043Z,11.20
2019-04-27T05:27:51.799Z,11.30
2019-04-27T05:30:20.632Z,11.30
2019-04-27T05:32:49.584Z,11.40
2019-04-27T05:35:20.208Z,11.50
2019-04-27T05:37:49.240Z,11.50
2019-04-27T05:40:18.932Z,11.60
2019-04-27T05:42:48.895Z,11.60
2019-04-27T05:45:57.756Z,11.60
2019-04-27T05:48:30.712Z,11.50
2019-04-27T05:51:01.889Z,11.40
2019-04-27T05:53:30.238Z,11.20
2019-04-27T05:56:00.183Z,11.20
2019-04-27T05:58:29.139Z,11.10
2019-04-27T06:00:59.490Z,11.10
2019-04-27T06:03:29.676Z,11.00
2019-04-27T06:06:01.425Z,11.00
2019-04-27T06:08:29.568Z,11.00
2019-04-27T06:10:59.228Z,11.00
2019-04-27T06:13:30.758Z,10.90
2019-04-27T06:15:59.340Z,10.90
2019-04-27T06:18:29.392Z,11.00
2019-04-27T06:20:59.854Z,11.00
2019-04-27T06:23:29.038Z,11.10
2019-04-27T06:26:01.453Z,11.10
2019-04-27T06:28:29.325Z,11.20
2019-04-27T06:30:59.535Z,11.20
2019-04-27T06:33:34.273Z,11.30
2019-04-27T06:36:01.811Z,11.30
2019-04-27T06:38:31.212Z,11.30
2019-04-27T06:41:01.446Z,11.40
2019-04-27T06:43:30.423Z,11.40
2019-04-27T06:45:59.410Z,11.40
2019-04-27T06:48:29.636Z,11.30
2019-04-27T06:51:03.659Z,11.30
2019-04-27T06:53:29.210Z,11.40
2019-04-27T06:55:58.639Z,11.40
2019-04-27T06:58:29.130Z,11.60
2019-04-27T07:00:59.619Z,11.80
2019-04-27T07:03:28.890Z,11.90
2019-04-27T07:05:58.899Z,12.20
2019-04-27T07:08:30.595Z,12.10
2019-04-27T07:10:59.163Z,12.10
2019-04-27T07:13:29.105Z,12.10
2019-04-27T07:15:59.702Z,12.10
2019-04-27T07:18:28.750Z,12.00
2019-04-27T07:20:58.676Z,11.90
2019-04-27T07:23:29.301Z,11.90
2019-04-27T07:25:59.903Z,11.80
2019-04-27T07:28:28.949Z,11.80
2019-04-27T07:30:58.676Z,11.80
2019-04-27T07:33:29.633Z,11.70
2019-04-27T07:35:59.049Z,11.80
2019-04-27T07:38:29.366Z,11.80
2019-04-27T07:40:58.735Z,11.80
2019-04-27T07:43:43.005Z,11.80
2019-04-27T07:46:11.855Z,11.80
2019-04-27T07:48:40.674Z,11.80
2019-04-27T07:51:09.581Z,11.90
2019-04-27T07:53:38.998Z,11.90
2019-04-27T07:56:09.353Z,11.80
2019-04-27T07:58:39.613Z,11.80
2019-04-27T08:01:09.303Z,11.80
2019-04-27T08:03:39.039Z,11.90
2019-04-27T08:06:08.461Z,11.80
2019-04-27T08:08:39.670Z,11.90
2019-04-27T08:11:09.150Z,11.90
2019-04-27T08:13:39.476Z,11.90
2019-04-27T08:16:08.736Z,11.90
2019-04-27T08:18:39.504Z,11.90
2019-04-27T08:21:20.623Z,11.80
2019-04-27T08:23:49.464Z,11.90
2019-04-27T08:26:29.442Z,11.90
2019-04-27T08:29:08.619Z,12.00
2019-04-27T08:31:45.800Z,12.10
2019-04-27T08:34:33.259Z,12.20
2019-04-27T08:37:02.460Z,12.20
2019-04-27T08:39:31.491Z,12.20
2019-04-27T08:42:00.462Z,12.10
2019-04-27T08:44:31.789Z,12.20
2019-04-27T08:47:02.262Z,12.20
2019-04-27T08:49:31.187Z,12.20
2019-04-27T08:52:01.938Z,12.20
2019-04-27T08:54:31.107Z,12.20
2019-04-27T08:57:01.774Z,12.30
2019-04-27T08:59:30.798Z,12.30
2019-04-27T09:01:59.795Z,12.40
2019-04-27T09:04:28.909Z,12.50
2019-04-27T09:07:02.781Z,12.50
2019-04-27T09:12:47.169Z,12.80
2019-04-27T09:15:20.815Z,12.80
2019-04-27T09:17:52.271Z,13.00
2019-04-27T09:20:28.681Z,13.10
2019-04-27T09:22:59.226Z,13.00
2019-04-27T09:28:03.204Z,12.90
2019-04-27T09:30:32.097Z,12.70
2019-04-27T09:33:01.063Z,12.70
2019-04-27T09:35:30.296Z,12.60
2019-04-27T09:37:59.241Z,12.60
2019-04-27T09:40:28.172Z,12.30
2019-04-27T09:42:57.331Z,11.10
2019-04-27T09:45:27.130Z,10.20
2019-04-27T09:47:56.480Z,9.90
2019-04-27T09:50:27.994Z,9.90
2019-04-27T09:52:56.249Z,9.70
2019-04-27T09:55:26.345Z,9.40
2019-04-27T09:57:56.914Z,9.50
2019-04-27T10:00:27.787Z,9.60
2019-04-27T10:02:57.333Z,9.70
2019-04-27T10:05:26.491Z,9.90
2019-04-27T10:07:56.963Z,10.20
2019-04-27T10:10:26.758Z,10.40
2019-04-27T10:12:56.789Z,10.60
2019-04-27T10:15:26.763Z,10.60
2019-04-27T10:17:57.687Z,10.70
2019-04-27T10:20:26.772Z,10.90
2019-04-27T10:22:56.485Z,11.00
2019-04-27T10:28:01.564Z,11.20
2019-04-27T10:30:31.309Z,11.20
2019-04-27T10:33:00.665Z,11.10
2019-04-27T10:35:29.546Z,11.20
2019-04-27T10:37:58.470Z,11.50
2019-04-27T10:40:27.368Z,11.70
2019-04-27T10:42:56.329Z,11.70
2019-04-27T10:45:25.870Z,11.90
2019-04-27T10:47:57.111Z,11.80
2019-04-27T10:50:26.555Z,12.00
2019-04-27T10:52:56.809Z,11.90
2019-04-27T10:55:26.587Z,11.60
2019-04-27T10:57:55.442Z,11.50
2019-04-27T11:00:31.349Z,11.50
2019-04-27T11:03:00.177Z,11.50
2019-04-27T11:05:35.854Z,11.40
2019-04-27T11:08:06.580Z,11.30
2019-04-27T11:10:36.052Z,11.30
2019-04-27T11:13:06.229Z,11.20
2019-04-27T11:15:37.067Z,11.10
2019-04-27T11:18:06.397Z,11.00
2019-04-27T11:20:36.258Z,11.00
2019-04-27T11:23:09.315Z,10.90
2019-04-27T11:25:36.540Z,10.90
2019-04-27T11:28:05.842Z,10.80
2019-04-27T11:30:34.904Z,10.80
2019-04-27T11:33:06.137Z,10.90
2019-04-27T11:35:53.752Z,10.90
2019-04-27T11:38:22.884Z,10.90
2019-04-27T11:40:51.823Z,10.80
2019-04-27T11:43:20.727Z,10.90
2019-04-27T11:45:49.646Z,11.10
2019-04-27T11:48:18.576Z,11.40
2019-04-27T11:50:47.615Z,11.60
2019-04-27T11:53:22.836Z,11.70
2019-04-27T11:55:47.241Z,11.60
2019-04-27T11:58:16.628Z,11.60
2019-04-27T12:00:45.654Z,11.70
2019-04-27T12:03:14.565Z,11.70
2019-04-27T12:05:43.469Z,11.60
2019-04-27T12:08:12.307Z,12.00
2019-04-27T12:10:41.315Z,12.20
2019-04-27T12:13:10.211Z,12.20
2019-04-27T12:15:39.173Z,12.00
2019-04-27T12:18:09.057Z,11.80
2019-04-27T12:20:38.096Z,12.00
2019-04-27T12:23:07.940Z,12.00
2019-04-27T12:25:37.404Z,12.10
2019-04-27T12:28:26.985Z,12.30
2019-04-27T12:31:22.806Z,12.50
2019-04-27T12:33:51.971Z,12.40
2019-04-27T12:36:20.965Z,12.40
2019-04-27T12:38:50.031Z,12.70
2019-04-27T12:41:19.535Z,12.80
2019-04-27T12:43:49.323Z,12.70
2019-04-27T12:46:18.236Z,12.70
2019-04-27T12:48:47.152Z,12.50
2019-04-27T12:51:16.178Z,12.60
2019-04-27T12:53:55.968Z,12.90
2019-04-27T12:56:34.354Z,13.10
2019-04-27T12:59:14.100Z,13.10
2019-04-27T13:01:42.923Z,13.20
2019-04-27T13:04:11.896Z,12.90
2019-04-27T13:06:40.903Z,13.00
2019-04-27T13:09:10.158Z,12.80
2019-04-27T13:11:38.963Z,12.70
2019-04-27T13:14:08.071Z,12.90
2019-04-27T13:16:36.939Z,13.40
2019-04-27T13:19:06.218Z,13.40
2019-04-27T13:21:36.560Z,13.50
2019-04-27T13:24:06.963Z,13.50
2019-04-27T13:26:37.981Z,13.80
2019-04-27T13:29:07.205Z,13.40
2019-04-27T13:31:36.912Z,13.70
2019-04-27T13:34:05.969Z,14.00
2019-04-27T13:36:36.645Z,14.40
2019-04-27T13:39:07.082Z,14.60
2019-04-27T13:41:36.057Z,14.60
2019-04-27T13:44:06.549Z,14.50
2019-04-27T13:46:53.487Z,14.30
2019-04-27T13:49:34.074Z,14.50
2019-04-27T13:52:11.703Z,14.70
2019-04-27T13:54:40.767Z,15.00
2019-04-27T13:57:09.735Z,15.10
2019-04-27T13:59:38.853Z,14.70
2019-04-27T14:02:07.932Z,14.70
2019-04-27T14:04:36.886Z,14.50
2019-04-27T14:07:05.884Z,14.30
2019-04-27T14:09:34.847Z,14.10
2019-04-27T14:12:22.358Z,13.00
2019-04-27T14:14:51.561Z,12.20
2019-04-27T14:17:20.630Z,11.80
2019-04-27T14:19:49.526Z,11.60
2019-04-27T14:22:18.617Z,11.40
2019-04-27T14:24:48.729Z,11.30
2019-04-27T14:27:18.867Z,11.40
2019-04-27T14:29:48.961Z,11.50
2019-04-27T14:32:18.761Z,11.80
2019-04-27T14:34:50.055Z,12.10
2019-04-27T14:37:18.608Z,12.50
2019-04-27T14:39:48.068Z,12.70
2019-04-27T14:42:18.989Z,12.70
2019-04-27T14:44:48.956Z,12.90
2019-04-27T14:47:18.790Z,13.10
2019-04-27T14:49:49.074Z,13.10
2019-04-27T14:52:18.794Z,13.40
2019-04-27T14:54:50.672Z,13.30
2019-04-27T14:57:20.436Z,13.50
2019-04-27T14:59:50.249Z,13.40
2019-04-27T15:02:19.281Z,13.90
2019-04-27T15:04:49.717Z,14.10
2019-04-27T15:07:18.796Z,14.30
2019-04-27T15:09:49.668Z,14.30
2019-04-27T15:12:18.359Z,14.00
2019-04-27T15:14:47.667Z,13.70
2019-04-27T15:17:17.614Z,13.60
2019-04-27T15:19:53.957Z,13.30
2019-04-27T15:22:27.167Z,12.90
2019-04-27T15:25:09.396Z,12.10
2019-04-27T15:27:42.133Z,11.50
2019-04-27T15:30:17.788Z,11.40
2019-04-27T15:33:10.492Z,11.60
2019-04-27T15:35:44.123Z,11.90
2019-04-27T15:38:18.676Z,12.50
2019-04-27T15:41:16.265Z,12.90
2019-04-27T15:43:46.239Z,13.00
2019-04-27T15:46:15.447Z,13.30
2019-04-27T15:48:44.467Z,13.50
2019-04-27T15:51:17.567Z,13.90
2019-04-27T15:53:45.951Z,14.10
2019-04-27T15:56:14.873Z,14.30
2019-04-27T15:58:44.119Z,14.60
2019-04-27T16:01:13.297Z,14.30
2019-04-27T16:03:42.268Z,14.00
2019-04-27T16:06:11.972Z,13.50
2019-04-27T16:08:44.926Z,13.50
2019-04-27T16:11:16.508Z,13.80
2019-04-27T16:13:42.827Z,14.10
2019-04-27T16:16:11.702Z,14.30
2019-04-27T16:18:40.634Z,14.30
2019-04-27T16:21:10.882Z,13.40
2019-04-27T16:23:43.041Z,13.00
2019-04-27T16:26:15.005Z,12.60
2019-04-27T16:28:43.032Z,12.70
2019-04-27T16:31:12.127Z,12.20
2019-04-27T16:33:41.268Z,12.20
2019-04-27T16:36:10.413Z,12.10
2019-04-27T16:38:52.695Z,12.10
2019-04-27T16:41:21.702Z,11.80
2019-04-27T16:43:50.752Z,11.50
2019-04-27T16:46:21.379Z,11.80
2019-04-27T16:48:50.591Z,11.70
2019-04-27T16:51:19.583Z,12.00
2019-04-27T16:53:49.099Z,12.50
2019-04-27T16:56:20.649Z,12.90
2019-04-27T16:58:56.696Z,13.00
2019-04-27T17:01:23.162Z,12.60
2019-04-27T17:03:52.572Z,12.60
2019-04-27T17:06:21.670Z,13.00
2019-04-27T17:08:50.665Z,13.40
2019-04-27T17:11:19.879Z,13.20
2019-04-27T17:13:53.848Z,13.40
2019-04-27T17:16:42.070Z,13.90
2019-04-27T17:19:15.687Z,13.50
2019-04-27T17:21:44.911Z,12.90
2019-04-27T17:24:18.014Z,12.50
2019-04-27T17:26:47.889Z,12.40
2019-04-27T17:29:20.279Z,12.50
2019-04-27T17:31:54.467Z,13.00
2019-04-27T17:34:25.392Z,12.90
2019-04-27T17:36:54.815Z,12.70
2019-04-27T17:39:23.515Z,12.60
2019-04-27T17:41:53.632Z,12.60
2019-04-27T17:44:23.327Z,12.50
2019-04-27T17:46:52.813Z,12.90
2019-04-27T17:49:21.846Z,12.60
2019-04-27T17:51:51.048Z,12.80
2019-04-27T17:54:19.963Z,13.30
2019-04-27T17:56:52.307Z,13.40
2019-04-27T17:59:20.891Z,13.50
2019-04-27T18:01:53.915Z,12.90
2019-04-27T18:04:21.079Z,12.70
2019-04-27T18:06:50.292Z,12.40
2019-04-27T18:09:19.768Z,12.20
2019-04-27T18:11:50.364Z,12.00
2019-04-27T18:14:19.567Z,11.80
2019-04-27T18:16:48.575Z,11.70
2019-04-27T18:19:35.438Z,11.70
2019-04-27T18:22:06.077Z,11.50
2019-04-27T18:25:06.272Z,11.50
2019-04-27T18:27:53.111Z,11.40
2019-04-27T18:30:54.583Z,10.50
2019-04-27T18:33:23.658Z,9.50
2019-04-27T18:35:52.610Z,9.10
2019-04-27T18:38:21.546Z,9.00
2019-04-27T18:40:50.583Z,9.00
2019-04-27T18:43:19.605Z,9.00
2019-04-27T18:45:48.767Z,8.90
2019-04-27T18:48:24.149Z,9.00
2019-04-27T18:51:08.555Z,9.00
2019-04-27T18:53:37.812Z,9.10
2019-04-27T18:56:10.140Z,9.20
2019-04-27T18:58:37.450Z,9.20
2019-04-27T19:01:08.509Z,9.20
2019-04-27T19:03:39.059Z,9.10
2019-04-27T19:06:08.509Z,9.20
2019-04-27T19:08:38.611Z,9.20
2019-04-27T19:11:09.311Z,9.30
2019-04-27T19:13:40.161Z,9.30
2019-04-27T19:16:09.813Z,9.40
2019-04-27T19:18:39.891Z,9.40
2019-04-27T19:21:09.443Z,9.40
2019-04-27T19:23:40.278Z,9.50
2019-04-27T19:26:15.689Z,9.40
2019-04-27T19:28:53.906Z,9.50
2019-04-27T19:31:29.023Z,9.50
2019-04-27T19:33:58.096Z,9.40
2019-04-27T19:36:27.921Z,9.50
2019-04-27T19:38:58.409Z,9.50
2019-04-27T19:41:28.837Z,9.50
2019-04-27T19:43:59.751Z,9.40
2019-04-27T19:46:30.397Z,9.50
2019-04-27T19:48:59.277Z,9.40
2019-04-27T19:51:28.352Z,9.50
2019-04-27T19:53:58.149Z,9.60
2019-04-27T19:56:28.384Z,9.50
2019-04-27T19:58:59.323Z,9.50
2019-04-27T20:01:34.831Z,9.50
2019-04-27T20:04:23.011Z,9.50
2019-04-27T20:06:52.095Z,9.50
2019-04-27T20:09:29.274Z,9.60
2019-04-27T20:11:58.223Z,9.60
2019-04-27T20:14:27.291Z,9.60
2019-04-27T20:16:56.326Z,9.60
2019-04-27T20:19:25.290Z,9.50
2019-04-27T20:21:54.261Z,9.50
2019-04-27T20:24:23.176Z,9.60
2019-04-27T20:26:52.129Z,9.50
2019-04-27T20:29:21.754Z,9.60
2019-04-27T20:31:51.286Z,9.60
2019-04-27T20:34:20.900Z,9.50
2019-04-27T20:36:51.286Z,9.50
2019-04-27T20:39:21.851Z,9.50
2019-04-27T20:41:51.216Z,9.50
2019-04-27T20:44:21.089Z,9.40
2019-04-27T20:46:51.336Z,9.40
2019-04-27T20:49:21.185Z,9.50
2019-04-27T20:52:12.295Z,9.50
2019-04-27T20:54:41.574Z,9.50
2019-04-27T20:57:11.559Z,9.50
2019-04-27T20:59:40.771Z,9.50
2019-04-27T21:02:28.039Z,9.50
2019-04-27T21:05:20.969Z,9.50
2019-04-27T21:07:52.925Z,9.50
2019-04-27T21:10:21.833Z,9.50
2019-04-27T21:12:51.864Z,9.50
2019-04-27T21:15:21.461Z,9.50
2019-04-27T21:17:51.240Z,9.40
2019-04-27T21:20:21.933Z,9.50
2019-04-27T21:22:53.323Z,9.50
2019-04-27T21:25:21.945Z,9.40
2019-04-27T21:27:51.375Z,9.40
2019-04-27T21:30:21.316Z,9.40
2019-04-27T21:32:50.941Z,9.50
2019-04-27T21:35:21.170Z,9.40
2019-04-27T21:37:51.203Z,9.50
2019-04-27T21:40:21.723Z,9.50
2019-04-27T21:42:51.398Z,9.50
2019-04-27T21:45:21.716Z,9.50
2019-04-27T21:47:51.901Z,9.50
2019-04-27T21:50:23.294Z,9.50
2019-04-27T21:53:03.708Z,9.50
2019-04-27T21:55:32.794Z,9.50
2019-04-27T21:58:01.768Z,9.50
2019-04-27T22:01:03.574Z,9.50
2019-04-27T22:03:32.623Z,9.50
2019-04-27T22:06:01.853Z,9.50
2019-04-27T22:08:31.839Z,9.50
2019-04-27T22:11:01.511Z,9.50
2019-04-27T22:13:31.189Z,9.60
2019-04-27T22:16:00.219Z,9.60
2019-04-27T22:18:29.182Z,9.70
2019-04-27T22:20:58.126Z,9.60
2019-04-27T22:23:52.218Z,9.50
2019-04-27T22:26:21.703Z,9.50
2019-04-27T22:28:52.029Z,9.50
2019-04-27T22:31:21.339Z,9.50
2019-04-27T22:33:52.519Z,9.50
2019-04-27T22:36:21.284Z,9.50
2019-04-27T22:38:51.582Z,9.40
2019-04-27T22:41:41.587Z,9.40
2019-04-27T22:44:38.232Z,9.40
2019-04-27T22:47:07.195Z,9.50
2019-04-27T22:49:36.098Z,9.50
2019-04-27T22:52:05.128Z,9.40
2019-04-27T22:54:34.510Z,9.40
2019-04-27T22:57:11.247Z,9.40
2019-04-27T23:00:03.740Z,9.40
2019-04-27T23:02:48.679Z,9.40
2019-04-27T23:05:17.663Z,9.40
2019-04-27T23:07:46.687Z,9.40
2019-04-27T23:10:15.680Z,9.40
2019-04-27T23:12:44.684Z,9.40
2019-04-27T23:15:17.521Z,9.40
2019-04-27T23:17:52.052Z,9.50
2019-04-27T23:20:21.078Z,9.50
2019-04-27T23:22:49.993Z,9.50
2019-04-27T23:25:18.910Z,9.50
2019-04-27T23:27:47.739Z,9.50
2019-04-27T23:30:17.314Z,9.50
2019-04-27T23:32:47.808Z,9.50
2019-04-27T23:35:16.769Z,9.50
2019-04-27T23:37:45.883Z,9.50
2019-04-27T23:40:15.059Z,9.50
2019-04-27T23:42:44.134Z,9.50
2019-04-27T23:45:14.319Z,9.50
2019-04-27T23:47:43.194Z,9.50
2019-04-27T23:50:12.483Z,9.60
2019-04-27T23:53:01.961Z,9.60
2019-04-27T23:55:32.990Z,9.60
2019-04-27T23:58:01.914Z,9.50
